sensor_id;sensor_type;location;lat;lon;timestamp;pressure;altitude;pressure_sealevel;temperature;humidity
77626;BME280;66794;43.764;10.436;2023-01-28T00:01:48;101397.56;;;6.56;40.95
77626;BME280;66794;43.764;10.436;2023-01-28T00:04:13;101394.47;;;6.61;40.65
77626;BME280;66794;43.764;10.436;2023-01-28T00:06:39;101352.53;;;6.27;41.48
77626;BME280;66794;43.764;10.436;2023-01-28T00:09:05;101389.63;;;6.54;40.87
77626;BME280;66794;43.764;10.436;2023-01-28T00:11:30;101392.31;;;6.54;40.95
77626;BME280;66794;43.764;10.436;2023-01-28T00:13:56;101384.09;;;6.56;41.02
77626;BME280;66794;43.764;10.436;2023-01-28T00:16:22;101383.41;;;6.54;41.26
77626;BME280;66794;43.764;10.436;2023-01-28T00:18:47;101397.31;;;6.59;40.61
77626;BME280;66794;43.764;10.436;2023-01-28T00:21:14;101385.81;;;6.57;41.17
77626;BME280;66794;43.764;10.436;2023-01-28T00:23:41;101359.13;;;6.44;41.06
77626;BME280;66794;43.764;10.436;2023-01-28T00:26:12;101385.94;;;6.55;41.50
77626;BME280;66794;43.764;10.436;2023-01-28T00:28:39;101350.63;;;6.39;41.51
77626;BME280;66794;43.764;10.436;2023-01-28T00:31:06;101372.25;;;6.58;41.54
77626;BME280;66794;43.764;10.436;2023-01-28T00:33:31;101388.38;;;6.58;42.13
77626;BME280;66794;43.764;10.436;2023-01-28T00:35:58;101352.59;;;6.37;42.12
77626;BME280;66794;43.764;10.436;2023-01-28T00:38:24;101384.09;;;6.56;42.27
77626;BME280;66794;43.764;10.436;2023-01-28T00:40:49;101375.88;;;6.57;41.92
77626;BME280;66794;43.764;10.436;2023-01-28T00:43:15;101395.28;;;6.51;42.37
77626;BME280;66794;43.764;10.436;2023-01-28T00:45:40;101350.16;;;6.34;42.61
77626;BME280;66794;43.764;10.436;2023-01-28T00:48:06;101382.56;;;6.53;42.61
77626;BME280;66794;43.764;10.436;2023-01-28T00:50:31;101404.16;;;6.42;43.05
77626;BME280;66794;43.764;10.436;2023-01-28T00:52:56;101392.28;;;6.45;42.82
77626;BME280;66794;43.764;10.436;2023-01-28T00:55:22;101384.78;;;6.48;42.58
77626;BME280;66794;43.764;10.436;2023-01-28T00:57:47;101327.91;;;6.01;42.97
77626;BME280;66794;43.764;10.436;2023-01-28T01:00:13;101372.81;;;6.31;43.00
77626;BME280;66794;43.764;10.436;2023-01-28T01:02:39;101355.38;;;6.26;42.72
77626;BME280;66794;43.764;10.436;2023-01-28T01:05:05;101383.56;;;6.31;42.78
77626;BME280;66794;43.764;10.436;2023-01-28T01:07:30;101389.13;;;6.40;43.12
77626;BME280;66794;43.764;10.436;2023-01-28T01:10:10;101392.66;;;6.40;42.86
77626;BME280;66794;43.764;10.436;2023-01-28T01:12:36;101393.81;;;6.38;42.57
77626;BME280;66794;43.764;10.436;2023-01-28T01:15:02;101401.72;;;6.39;42.37
77626;BME280;66794;43.764;10.436;2023-01-28T01:17:29;101387.13;;;6.32;42.07
77626;BME280;66794;43.764;10.436;2023-01-28T01:19:55;101381.38;;;6.16;42.63
77626;BME280;66794;43.764;10.436;2023-01-28T01:22:21;101424.38;;;6.37;42.36
77626;BME280;66794;43.764;10.436;2023-01-28T01:24:47;101393.75;;;6.28;42.44
77626;BME280;66794;43.764;10.436;2023-01-28T01:27:12;101398.94;;;6.20;42.12
77626;BME280;66794;43.764;10.436;2023-01-28T01:29:38;101408.56;;;6.22;42.17
77626;BME280;66794;43.764;10.436;2023-01-28T01:32:04;101411.88;;;6.36;42.07
77626;BME280;66794;43.764;10.436;2023-01-28T01:34:29;101412.78;;;6.36;41.52
77626;BME280;66794;43.764;10.436;2023-01-28T01:36:55;101413.56;;;6.27;42.12
77626;BME280;66794;43.764;10.436;2023-01-28T01:39:20;101396.91;;;6.12;41.62
77626;BME280;66794;43.764;10.436;2023-01-28T01:41:46;101419.31;;;6.22;42.25
77626;BME280;66794;43.764;10.436;2023-01-28T01:47:15;101408.78;;;6.10;41.61
77626;BME280;66794;43.764;10.436;2023-01-28T01:49:41;101408.56;;;6.22;41.13
77626;BME280;66794;43.764;10.436;2023-01-28T01:52:11;101434.53;;;6.33;40.98
77626;BME280;66794;43.764;10.436;2023-01-28T01:54:38;101394.81;;;5.95;41.77
77626;BME280;66794;43.764;10.436;2023-01-28T01:57:09;101428.00;;;6.26;40.47
77626;BME280;66794;43.764;10.436;2023-01-28T01:59:37;101430.56;;;6.27;40.46
77626;BME280;66794;43.764;10.436;2023-01-28T02:02:06;101441.16;;;6.29;40.70
77626;BME280;66794;43.764;10.436;2023-01-28T02:04:40;101397.75;;;6.13;40.44
77626;BME280;66794;43.764;10.436;2023-01-28T02:07:08;101441.31;;;6.27;39.96
77626;BME280;66794;43.764;10.436;2023-01-28T02:09:35;101448.53;;;6.27;39.72
77626;BME280;66794;43.764;10.436;2023-01-28T02:12:22;101413.56;;;6.27;39.58
77626;BME280;66794;43.764;10.436;2023-01-28T02:14:53;101418.03;;;6.17;39.53
77626;BME280;66794;43.764;10.436;2023-01-28T02:17:21;101440.25;;;6.19;39.70
77626;BME280;66794;43.764;10.436;2023-01-28T02:19:54;101405.94;;;6.11;40.10
77626;BME280;66794;43.764;10.436;2023-01-28T02:24:54;101425.09;;;6.18;40.17
77626;BME280;66794;43.764;10.436;2023-01-28T02:30:20;101436.25;;;6.13;40.38
77626;BME280;66794;43.764;10.436;2023-01-28T02:33:08;101397.09;;;5.99;40.39
77626;BME280;66794;43.764;10.436;2023-01-28T02:35:49;101421.75;;;6.04;40.75
77626;BME280;66794;43.764;10.436;2023-01-28T02:38:21;101443.59;;;6.11;40.67
77626;BME280;66794;43.764;10.436;2023-01-28T02:40:54;101428.97;;;6.04;40.83
77626;BME280;66794;43.764;10.436;2023-01-28T02:46:12;101423.13;;;5.99;41.11
77626;BME280;66794;43.764;10.436;2023-01-28T02:48:59;101412.97;;;6.02;41.07
77626;BME280;66794;43.764;10.436;2023-01-28T02:51:56;101451.53;;;6.13;41.38
77626;BME280;66794;43.764;10.436;2023-01-28T02:54:29;101455.59;;;6.07;41.92
77626;BME280;66794;43.764;10.436;2023-01-28T02:59:48;101440.91;;;6.11;42.58
77626;BME280;66794;43.764;10.436;2023-01-28T03:05:13;101448.50;;;6.06;42.87
77626;BME280;66794;43.764;10.436;2023-01-28T03:07:43;101423.78;;;5.80;43.02
77626;BME280;66794;43.764;10.436;2023-01-28T03:10:12;101452.19;;;6.05;42.95
77626;BME280;66794;43.764;10.436;2023-01-28T03:12:42;101420.34;;;5.89;43.24
77626;BME280;66794;43.764;10.436;2023-01-28T03:15:40;101469.31;;;6.04;43.15
77626;BME280;66794;43.764;10.436;2023-01-28T03:18:46;101450.28;;;5.96;43.78
77626;BME280;66794;43.764;10.436;2023-01-28T03:21:35;101457.72;;;6.03;43.51
77626;BME280;66794;43.764;10.436;2023-01-28T03:24:31;101429.50;;;5.87;43.80
77626;BME280;66794;43.764;10.436;2023-01-28T03:30:19;101435.47;;;5.90;43.77
77626;BME280;66794;43.764;10.436;2023-01-28T03:33:06;101444.53;;;5.89;43.91
77626;BME280;66794;43.764;10.436;2023-01-28T03:35:50;101455.28;;;5.89;44.18
77626;BME280;66794;43.764;10.436;2023-01-28T03:38:34;101427.59;;;5.77;44.28
77626;BME280;66794;43.764;10.436;2023-01-28T03:41:08;101447.44;;;5.97;43.81
77626;BME280;66794;43.764;10.436;2023-01-28T03:43:34;101428.97;;;5.72;44.18
77626;BME280;66794;43.764;10.436;2023-01-28T03:46:00;101434.88;;;5.87;43.50
77626;BME280;66794;43.764;10.436;2023-01-28T03:48:27;101462.00;;;5.95;43.74
77626;BME280;66794;43.764;10.436;2023-01-28T03:50:57;101460.41;;;5.92;43.89
77626;BME280;66794;43.764;10.436;2023-01-28T03:53:26;101422.00;;;5.69;44.14
77626;BME280;66794;43.764;10.436;2023-01-28T03:55:53;101454.09;;;5.82;44.78
77626;BME280;66794;43.764;10.436;2023-01-28T03:58:21;101455.03;;;5.92;43.54
77626;BME280;66794;43.764;10.436;2023-01-28T04:00:52;101433.97;;;5.76;43.72
77626;BME280;66794;43.764;10.436;2023-01-28T04:03:19;101441.97;;;5.88;43.53
77626;BME280;66794;43.764;10.436;2023-01-28T04:06:02;101469.97;;;5.85;44.12
77626;BME280;66794;43.764;10.436;2023-01-28T04:08:28;101436.44;;;5.68;43.83
77626;BME280;66794;43.764;10.436;2023-01-28T04:10:54;101453.03;;;5.73;43.85
77626;BME280;66794;43.764;10.436;2023-01-28T04:13:19;101434.44;;;5.70;43.24
77626;BME280;66794;43.764;10.436;2023-01-28T04:15:45;101462.66;;;5.76;44.13
77626;BME280;66794;43.764;10.436;2023-01-28T04:18:11;101442.47;;;5.81;44.13
77626;BME280;66794;43.764;10.436;2023-01-28T04:20:36;101467.66;;;5.80;44.24
77626;BME280;66794;43.764;10.436;2023-01-28T04:23:02;101469.16;;;5.73;44.45
77626;BME280;66794;43.764;10.436;2023-01-28T04:25:29;101451.69;;;5.68;44.34
77626;BME280;66794;43.764;10.436;2023-01-28T04:27:54;101453.19;;;5.61;44.53
77626;BME280;66794;43.764;10.436;2023-01-28T04:30:20;101478.44;;;5.69;44.86
77626;BME280;66794;43.764;10.436;2023-01-28T04:32:46;101439.41;;;5.54;44.70
77626;BME280;66794;43.764;10.436;2023-01-28T04:35:12;101474.66;;;5.72;44.44
77626;BME280;66794;43.764;10.436;2023-01-28T04:37:40;101412.97;;;5.38;44.56
77626;BME280;66794;43.764;10.436;2023-01-28T04:40:06;101463.81;;;5.62;44.69
77626;BME280;66794;43.764;10.436;2023-01-28T04:42:31;101457.13;;;5.57;44.27
77626;BME280;66794;43.764;10.436;2023-01-28T04:44:57;101484.41;;;5.73;44.57
77626;BME280;66794;43.764;10.436;2023-01-28T04:47:22;101446.13;;;5.48;44.66
77626;BME280;66794;43.764;10.436;2023-01-28T04:49:47;101495.31;;;5.71;44.83
77626;BME280;66794;43.764;10.436;2023-01-28T04:52:13;101473.59;;;5.52;44.67
77626;BME280;66794;43.764;10.436;2023-01-28T04:54:38;101479.28;;;5.70;44.23
77626;BME280;66794;43.764;10.436;2023-01-28T04:57:04;101474.22;;;5.56;44.52
77626;BME280;66794;43.764;10.436;2023-01-28T04:59:29;101475.78;;;5.58;44.11
77626;BME280;66794;43.764;10.436;2023-01-28T05:01:54;101489.19;;;5.69;44.18
77626;BME280;66794;43.764;10.436;2023-01-28T05:04:20;101505.91;;;5.73;44.48
77626;BME280;66794;43.764;10.436;2023-01-28T05:06:45;101500.78;;;5.70;44.81
77626;BME280;66794;43.764;10.436;2023-01-28T05:09:11;101487.16;;;5.50;44.94
77626;BME280;66794;43.764;10.436;2023-01-28T05:11:36;101464.22;;;5.46;44.37
77626;BME280;66794;43.764;10.436;2023-01-28T05:14:02;101482.03;;;5.47;44.55
77626;BME280;66794;43.764;10.436;2023-01-28T05:16:27;101486.91;;;5.53;44.70
77626;BME280;66794;43.764;10.436;2023-01-28T05:18:52;101495.47;;;5.47;44.83
77626;BME280;66794;43.764;10.436;2023-01-28T05:21:18;101518.75;;;5.69;44.52
77626;BME280;66794;43.764;10.436;2023-01-28T05:23:43;101522.66;;;5.65;44.20
77626;BME280;66794;43.764;10.436;2023-01-28T05:26:09;101518.41;;;5.63;44.48
77626;BME280;66794;43.764;10.436;2023-01-28T05:28:34;101509.97;;;5.67;44.44
77626;BME280;66794;43.764;10.436;2023-01-28T05:31:04;101489.63;;;5.42;44.45
77626;BME280;66794;43.764;10.436;2023-01-28T05:33:29;101534.66;;;5.61;44.44
77626;BME280;66794;43.764;10.436;2023-01-28T05:35:55;101523.53;;;5.66;44.36
77626;BME280;66794;43.764;10.436;2023-01-28T05:38:20;101508.41;;;5.53;45.11
77626;BME280;66794;43.764;10.436;2023-01-28T05:40:46;101538.19;;;5.62;44.88
77626;BME280;66794;43.764;10.436;2023-01-28T05:43:12;101511.84;;;5.56;45.20
77626;BME280;66794;43.764;10.436;2023-01-28T05:45:37;101528.81;;;5.56;44.51
77626;BME280;66794;43.764;10.436;2023-01-28T05:48:03;101541.72;;;5.62;44.47
77626;BME280;66794;43.764;10.436;2023-01-28T05:50:29;101506.97;;;5.49;44.36
77626;BME280;66794;43.764;10.436;2023-01-28T05:52:54;101521.09;;;5.51;44.60
77626;BME280;66794;43.764;10.436;2023-01-28T05:55:20;101515.50;;;5.43;44.67
77626;BME280;66794;43.764;10.436;2023-01-28T05:57:45;101538.44;;;5.59;45.06
77626;BME280;66794;43.764;10.436;2023-01-28T06:00:11;101534.31;;;5.54;45.15
77626;BME280;66794;43.764;10.436;2023-01-28T06:02:37;101529.19;;;5.40;45.19
77626;BME280;66794;43.764;10.436;2023-01-28T06:05:03;101541.25;;;5.57;45.05
77626;BME280;66794;43.764;10.436;2023-01-28T06:07:29;101531.38;;;5.46;44.80
77626;BME280;66794;43.764;10.436;2023-01-28T06:09:54;101553.56;;;5.60;45.29
77626;BME280;66794;43.764;10.436;2023-01-28T06:12:20;101535.19;;;5.44;44.83
77626;BME280;66794;43.764;10.436;2023-01-28T06:14:45;101569.69;;;5.60;45.14
77626;BME280;66794;43.764;10.436;2023-01-28T06:17:10;101533.84;;;5.38;45.49
77626;BME280;66794;43.764;10.436;2023-01-28T06:19:36;101528.59;;;5.25;45.59
77626;BME280;66794;43.764;10.436;2023-01-28T06:22:01;101543.97;;;5.35;45.78
77626;BME280;66794;43.764;10.436;2023-01-28T06:24:27;101578.16;;;5.55;46.05
77626;BME280;66794;43.764;10.436;2023-01-28T06:26:52;101555.06;;;5.41;45.62
77626;BME280;66794;43.764;10.436;2023-01-28T06:29:17;101586.22;;;5.55;45.94
77626;BME280;66794;43.764;10.436;2023-01-28T06:31:43;101600.50;;;5.56;45.95
77626;BME280;66794;43.764;10.436;2023-01-28T06:34:09;101571.53;;;5.37;45.90
77626;BME280;66794;43.764;10.436;2023-01-28T06:36:35;101578.63;;;5.38;46.45
77626;BME280;66794;43.764;10.436;2023-01-28T06:39:02;101567.03;;;5.37;46.42
77626;BME280;66794;43.764;10.436;2023-01-28T06:41:28;101585.34;;;5.54;46.10
77626;BME280;66794;43.764;10.436;2023-01-28T06:43:54;101585.47;;;5.53;45.95
77626;BME280;66794;43.764;10.436;2023-01-28T06:46:19;101561.78;;;5.47;45.90
77626;BME280;66794;43.764;10.436;2023-01-28T06:48:45;101584.75;;;5.51;45.49
77626;BME280;66794;43.764;10.436;2023-01-28T06:51:10;101603.28;;;5.65;45.82
77626;BME280;66794;43.764;10.436;2023-01-28T06:53:36;101579.59;;;5.48;45.77
77626;BME280;66794;43.764;10.436;2023-01-28T06:56:01;101609.25;;;5.69;45.80
77626;BME280;66794;43.764;10.436;2023-01-28T06:58:26;101616.72;;;5.76;45.31
77626;BME280;66794;43.764;10.436;2023-01-28T07:00:52;101605.72;;;5.79;45.12
77626;BME280;66794;43.764;10.436;2023-01-28T07:03:18;101614.75;;;5.78;45.38
77626;BME280;66794;43.764;10.436;2023-01-28T07:05:43;101594.50;;;5.63;44.85
77626;BME280;66794;43.764;10.436;2023-01-28T07:08:09;101606.72;;;5.67;45.18
77626;BME280;66794;43.764;10.436;2023-01-28T07:10:34;101552.66;;;5.38;44.87
77626;BME280;66794;43.764;10.436;2023-01-28T07:13:00;101637.13;;;5.79;45.00
77626;BME280;66794;43.764;10.436;2023-01-28T07:15:25;101632.84;;;5.88;44.93
77626;BME280;66794;43.764;10.436;2023-01-28T07:17:51;101619.66;;;5.73;45.05
77626;BME280;66794;43.764;10.436;2023-01-28T07:20:16;101646.53;;;5.96;44.24
77626;BME280;66794;43.764;10.436;2023-01-28T07:22:43;101637.22;;;5.89;45.10
77626;BME280;66794;43.764;10.436;2023-01-28T07:25:09;101644.22;;;5.91;45.08
77626;BME280;66794;43.764;10.436;2023-01-28T07:27:35;101648.84;;;6.00;44.45
77626;BME280;66794;43.764;10.436;2023-01-28T07:30:00;101650.22;;;5.95;44.89
77626;BME280;66794;43.764;10.436;2023-01-28T07:32:26;101640.16;;;5.97;44.51
77626;BME280;66794;43.764;10.436;2023-01-28T07:34:53;101609.50;;;5.88;44.77
77626;BME280;66794;43.764;10.436;2023-01-28T07:37:18;101600.84;;;5.73;44.90
77626;BME280;66794;43.764;10.436;2023-01-28T07:39:44;101635.06;;;5.94;44.84
77626;BME280;66794;43.764;10.436;2023-01-28T07:42:09;101618.94;;;5.94;44.60
77626;BME280;66794;43.764;10.436;2023-01-28T07:44:35;101647.72;;;6.14;44.62
77626;BME280;66794;43.764;10.436;2023-01-28T07:47:05;101634.69;;;5.98;44.23
77626;BME280;66794;43.764;10.436;2023-01-28T07:49:32;101664.72;;;6.15;44.36
77626;BME280;66794;43.764;10.436;2023-01-28T07:51:58;101611.19;;;5.89;44.69
77626;BME280;66794;43.764;10.436;2023-01-28T07:54:23;101634.28;;;6.03;44.45
77626;BME280;66794;43.764;10.436;2023-01-28T07:56:49;101655.88;;;6.24;43.84
77626;BME280;66794;43.764;10.436;2023-01-28T07:59:14;101695.16;;;6.26;43.92
77626;BME280;66794;43.764;10.436;2023-01-28T08:01:40;101666.13;;;6.30;44.00
77626;BME280;66794;43.764;10.436;2023-01-28T08:04:05;101659.56;;;6.23;43.96
77626;BME280;66794;43.764;10.436;2023-01-28T08:06:31;101652.50;;;6.11;44.07
77626;BME280;66794;43.764;10.436;2023-01-28T08:09:04;101655.91;;;6.13;43.86
77626;BME280;66794;43.764;10.436;2023-01-28T08:11:32;101652.63;;;6.20;43.57
77626;BME280;66794;43.764;10.436;2023-01-28T08:13:59;101663.38;;;6.20;43.85
77626;BME280;66794;43.764;10.436;2023-01-28T08:16:24;101684.84;;;6.43;43.66
77626;BME280;66794;43.764;10.436;2023-01-28T08:18:51;101688.59;;;6.51;43.29
77626;BME280;66794;43.764;10.436;2023-01-28T08:21:16;101662.34;;;6.32;43.63
77626;BME280;66794;43.764;10.436;2023-01-28T08:23:42;101650.47;;;6.35;43.77
77626;BME280;66794;43.764;10.436;2023-01-28T08:26:07;101678.44;;;6.55;43.59
77626;BME280;66794;43.764;10.436;2023-01-28T08:28:33;101703.03;;;6.50;43.34
77626;BME280;66794;43.764;10.436;2023-01-28T08:31:00;101697.66;;;6.50;43.31
77626;BME280;66794;43.764;10.436;2023-01-28T08:33:25;101699.59;;;6.59;43.34
77626;BME280;66794;43.764;10.436;2023-01-28T08:35:51;101702.00;;;6.63;43.19
77626;BME280;66794;43.764;10.436;2023-01-28T08:38:16;101683.94;;;6.53;42.94
77626;BME280;66794;43.764;10.436;2023-01-28T08:40:42;101703.41;;;6.78;42.54
77626;BME280;66794;43.764;10.436;2023-01-28T08:43:08;101702.72;;;6.76;42.15
77626;BME280;66794;43.764;10.436;2023-01-28T08:45:33;101684.84;;;6.75;42.14
77626;BME280;66794;43.764;10.436;2023-01-28T08:50:26;101698.59;;;6.93;42.46
77626;BME280;66794;43.764;10.436;2023-01-28T08:53:00;101726.72;;;7.00;41.10
77626;BME280;66794;43.764;10.436;2023-01-28T08:55:27;101724.09;;;7.09;41.72
77626;BME280;66794;43.764;10.436;2023-01-28T08:57:53;101726.53;;;7.13;41.75
77626;BME280;66794;43.764;10.436;2023-01-28T09:00:20;101718.09;;;7.06;42.14
77626;BME280;66794;43.764;10.436;2023-01-28T09:02:45;101720.22;;;7.02;41.80
77626;BME280;66794;43.764;10.436;2023-01-28T09:05:11;101731.94;;;7.13;41.70
77626;BME280;66794;43.764;10.436;2023-01-28T09:07:37;101690.44;;;6.83;42.08
77626;BME280;66794;43.764;10.436;2023-01-28T09:10:04;101746.47;;;6.89;42.35
77626;BME280;66794;43.764;10.436;2023-01-28T09:12:30;101752.44;;;6.93;42.22
77626;BME280;66794;43.764;10.436;2023-01-28T09:14:56;101748.78;;;6.94;42.83
77626;BME280;66794;43.764;10.436;2023-01-28T09:17:22;101754.63;;;6.99;42.51
77626;BME280;66794;43.764;10.436;2023-01-28T09:19:47;101759.16;;;6.98;42.93
77626;BME280;66794;43.764;10.436;2023-01-28T09:22:13;101750.59;;;6.93;42.76
77626;BME280;66794;43.764;10.436;2023-01-28T09:24:38;101752.88;;;7.09;42.91
77626;BME280;66794;43.764;10.436;2023-01-28T09:27:04;101764.66;;;7.50;46.63
77626;BME280;66794;43.764;10.436;2023-01-28T09:29:29;101745.44;;;7.01;42.59
77626;BME280;66794;43.764;10.436;2023-01-28T09:31:55;101773.72;;;7.07;42.84
77626;BME280;66794;43.764;10.436;2023-01-28T09:34:20;101771.13;;;7.05;43.40
77626;BME280;66794;43.764;10.436;2023-01-28T09:36:45;101769.69;;;7.01;43.42
77626;BME280;66794;43.764;10.436;2023-01-28T09:39:11;101761.72;;;7.00;42.72
77626;BME280;66794;43.764;10.436;2023-01-28T09:47:44;101795.59;;;7.67;42.32
77626;BME280;66794;43.764;10.436;2023-01-28T09:50:16;101790.63;;;7.72;42.30
77626;BME280;66794;43.764;10.436;2023-01-28T09:52:43;101789.38;;;7.76;41.17
77626;BME280;66794;43.764;10.436;2023-01-28T09:55:30;101781.28;;;7.76;41.00
77626;BME280;66794;43.764;10.436;2023-01-28T09:57:57;101775.94;;;7.85;41.09
77626;BME280;66794;43.764;10.436;2023-01-28T10:00:33;101796.84;;;7.93;41.68
77626;BME280;66794;43.764;10.436;2023-01-28T10:10:58;101732.66;;;7.87;40.87
77626;BME280;66794;43.764;10.436;2023-01-28T10:13:42;101795.31;;;8.21;41.49
77626;BME280;66794;43.764;10.436;2023-01-28T10:16:21;101782.53;;;8.23;41.06
77626;BME280;66794;43.764;10.436;2023-01-28T10:19:21;101773.34;;;8.35;41.30
77626;BME280;66794;43.764;10.436;2023-01-28T10:24:40;101766.75;;;8.49;40.06
77626;BME280;66794;43.764;10.436;2023-01-28T10:27:16;101772.25;;;8.38;40.46
77626;BME280;66794;43.764;10.436;2023-01-28T10:29:41;101763.88;;;8.41;40.79
77626;BME280;66794;43.764;10.436;2023-01-28T10:32:29;101775.44;;;8.62;40.77
77626;BME280;66794;43.764;10.436;2023-01-28T10:34:56;101761.94;;;8.62;40.72
77626;BME280;66794;43.764;10.436;2023-01-28T10:37:28;101735.75;;;8.43;40.54
77626;BME280;66794;43.764;10.436;2023-01-28T10:39:57;101752.25;;;8.50;39.93
77626;BME280;66794;43.764;10.436;2023-01-28T10:42:30;101746.84;;;8.50;40.49
77626;BME280;66794;43.764;10.436;2023-01-28T10:45:22;101735.66;;;8.74;40.67
77626;BME280;66794;43.764;10.436;2023-01-28T10:48:16;101755.56;;;8.73;40.44
77626;BME280;66794;43.764;10.436;2023-01-28T10:50:54;101749.47;;;8.90;40.65
77626;BME280;66794;43.764;10.436;2023-01-28T10:56:06;101701.41;;;8.55;39.73
77626;BME280;66794;43.764;10.436;2023-01-28T10:58:49;101752.03;;;9.11;39.93
77626;BME280;66794;43.764;10.436;2023-01-28T11:01:17;101746.06;;;9.17;40.03
77626;BME280;66794;43.764;10.436;2023-01-28T11:03:52;101711.50;;;8.82;40.02
77626;BME280;66794;43.764;10.436;2023-01-28T11:06:28;101743.78;;;9.22;39.90
77626;BME280;66794;43.764;10.436;2023-01-28T11:08:54;101752.63;;;9.15;37.96
77626;BME280;66794;43.764;10.436;2023-01-28T11:11:27;101756.13;;;9.35;38.98
77626;BME280;66794;43.764;10.436;2023-01-28T11:13:54;101724.84;;;9.22;37.89
77626;BME280;66794;43.764;10.436;2023-01-28T11:16:23;101742.06;;;9.41;38.19
77626;BME280;66794;43.764;10.436;2023-01-28T11:18:52;101729.09;;;9.44;38.45
77626;BME280;66794;43.764;10.436;2023-01-28T11:21:29;101732.47;;;9.66;38.23
77626;BME280;66794;43.764;10.436;2023-01-28T11:24:04;101698.19;;;9.57;38.14
77626;BME280;66794;43.764;10.436;2023-01-28T11:26:33;101683.16;;;9.35;37.25
77626;BME280;66794;43.764;10.436;2023-01-28T11:29:00;101731.53;;;9.47;36.96
77626;BME280;66794;43.764;10.436;2023-01-28T11:31:26;101739.78;;;9.93;38.02
77626;BME280;66794;43.764;10.436;2023-01-28T11:33:59;101735.34;;;10.01;37.76
77626;BME280;66794;43.764;10.436;2023-01-28T11:36:30;101732.34;;;10.05;37.87
77626;BME280;66794;43.764;10.436;2023-01-28T11:39:13;101722.94;;;9.99;37.91
77626;BME280;66794;43.764;10.436;2023-01-28T11:41:40;101719.91;;;9.84;36.31
77626;BME280;66794;43.764;10.436;2023-01-28T11:44:17;101732.66;;;10.01;36.60
77626;BME280;66794;43.764;10.436;2023-01-28T11:52:09;101719.44;;;10.26;36.77
77626;BME280;66794;43.764;10.436;2023-01-28T12:11:41;101700.22;;;11.18;40.39
77626;BME280;66794;43.764;10.436;2023-01-28T12:19:57;101712.31;;;10.52;36.17
77626;BME280;66794;43.764;10.436;2023-01-28T12:31:16;101691.81;;;10.50;36.05
77626;BME280;66794;43.764;10.436;2023-01-28T12:41:40;101671.28;;;10.47;35.62
77626;BME280;66794;43.764;10.436;2023-01-28T12:44:17;101667.56;;;10.48;35.88
77626;BME280;66794;43.764;10.436;2023-01-28T12:46:57;101641.81;;;10.44;36.27
77626;BME280;66794;43.764;10.436;2023-01-28T12:49:31;101691.28;;;11.00;35.85
77626;BME280;66794;43.764;10.436;2023-01-28T12:52:04;101683.38;;;10.71;35.13
77626;BME280;66794;43.764;10.436;2023-01-28T12:57:31;101679.81;;;10.70;35.64
77626;BME280;66794;43.764;10.436;2023-01-28T13:00:33;101680.66;;;10.53;34.98
77626;BME280;66794;43.764;10.436;2023-01-28T13:03:17;101661.75;;;10.25;34.66
77626;BME280;66794;43.764;10.436;2023-01-28T13:05:54;101677.56;;;10.48;35.09
77626;BME280;66794;43.764;10.436;2023-01-28T13:08:26;101662.63;;;10.44;34.94
77626;BME280;66794;43.764;10.436;2023-01-28T13:10:54;101679.34;;;10.57;36.12
77626;BME280;66794;43.764;10.436;2023-01-28T13:13:32;101683.84;;;10.66;34.63
77626;BME280;66794;43.764;10.436;2023-01-28T13:16:00;101684.09;;;10.55;34.27
77626;BME280;66794;43.764;10.436;2023-01-28T13:21:01;101688.94;;;10.69;33.40
77626;BME280;66794;43.764;10.436;2023-01-28T13:25:56;101688.03;;;10.96;34.46
77626;BME280;66794;43.764;10.436;2023-01-28T13:28:33;101655.19;;;10.82;34.83
77626;BME280;66794;43.764;10.436;2023-01-28T13:31:13;101690.75;;;10.61;33.98
77626;BME280;66794;43.764;10.436;2023-01-28T13:33:47;101693.22;;;10.72;34.62
77626;BME280;66794;43.764;10.436;2023-01-28T13:39:06;101686.94;;;10.89;35.71
77626;BME280;66794;43.764;10.436;2023-01-28T13:47:10;101669.88;;;10.43;34.57
77626;BME280;66794;43.764;10.436;2023-01-28T13:49:37;101695.66;;;10.65;33.85
77626;BME280;66794;43.764;10.436;2023-01-28T13:54:36;101695.53;;;10.85;34.11
77626;BME280;66794;43.764;10.436;2023-01-28T14:08:52;101728.78;;;11.30;32.85
77626;BME280;66794;43.764;10.436;2023-01-28T14:16:29;101733.47;;;11.20;33.44
77626;BME280;66794;43.764;10.436;2023-01-28T14:19:00;101738.25;;;11.09;33.05
77626;BME280;66794;43.764;10.436;2023-01-28T14:21:27;101730.22;;;11.17;33.00
77626;BME280;66794;43.764;10.436;2023-01-28T14:23:56;101741.81;;;11.45;33.42
77626;BME280;66794;43.764;10.436;2023-01-28T14:26:25;101731.66;;;11.29;32.96
77626;BME280;66794;43.764;10.436;2023-01-28T14:31:32;101742.22;;;11.32;33.69
77626;BME280;66794;43.764;10.436;2023-01-28T14:34:08;101741.31;;;11.05;33.11
77626;BME280;66794;43.764;10.436;2023-01-28T14:36:38;101751.50;;;11.29;33.26
77626;BME280;66794;43.764;10.436;2023-01-28T14:39:09;101742.84;;;11.08;32.78
77626;BME280;66794;43.764;10.436;2023-01-28T14:41:36;101750.41;;;10.69;33.89
77626;BME280;66794;43.764;10.436;2023-01-28T14:44:02;101753.97;;;10.69;34.50
77626;BME280;66794;43.764;10.436;2023-01-28T14:46:47;101758.06;;;10.56;34.18
77626;BME280;66794;43.764;10.436;2023-01-28T14:49:34;101733.69;;;10.28;34.72
77626;BME280;66794;43.764;10.436;2023-01-28T14:57:49;101759.34;;;9.77;35.02
77626;BME280;66794;43.764;10.436;2023-01-28T15:00:25;101767.09;;;9.62;35.93
77626;BME280;66794;43.764;10.436;2023-01-28T15:02:51;101744.34;;;9.16;35.29
77626;BME280;66794;43.764;10.436;2023-01-28T15:05:27;101780.63;;;9.33;36.28
77626;BME280;66794;43.764;10.436;2023-01-28T15:07:53;101784.47;;;9.31;35.64
77626;BME280;66794;43.764;10.436;2023-01-28T15:10:24;101785.31;;;9.21;36.86